sensor_id;sensor_type;location;lat;lon;timestamp;P1;durP1;ratioP1;P2;durP2;ratioP2
6089;SDS011;3073;42.660;23.316;2023-08-24T00:01:13;29.90;;;14.37;;
6089;SDS011;3073;42.660;23.316;2023-08-24T00:03:43;23.53;;;14.00;;
6089;SDS011;3073;42.660;23.316;2023-08-24T00:06:11;22.33;;;13.27;;
6089;SDS011;3073;42.660;23.316;2023-08-24T00:08:39;18.70;;;13.47;;
6089;SDS011;3073;42.660;23.316;2023-08-24T00:11:06;18.90;;;12.37;;
6089;SDS011;3073;42.660;23.316;2023-08-24T00:13:33;16.07;;;12.70;;
6089;SDS011;3073;42.660;23.316;2023-08-24T00:16:00;16.37;;;13.40;;
6089;SDS011;3073;42.660;23.316;2023-08-24T00:18:27;17.70;;;13.17;;
6089;SDS011;3073;42.660;23.316;2023-08-24T00:20:53;17.97;;;12.47;;
6089;SDS011;3073;42.660;23.316;2023-08-24T00:23:20;16.40;;;12.37;;
6089;SDS011;3073;42.660;23.316;2023-08-24T00:25:48;15.83;;;12.70;;
6089;SDS011;3073;42.660;23.316;2023-08-24T00:28:15;18.43;;;12.90;;
6089;SDS011;3073;42.660;23.316;2023-08-24T00:30:42;18.03;;;13.00;;
6089;SDS011;3073;42.660;23.316;2023-08-24T00:33:08;23.07;;;13.27;;
6089;SDS011;3073;42.660;23.316;2023-08-24T00:35:35;15.50;;;12.60;;
6089;SDS011;3073;42.660;23.316;2023-08-24T00:38:02;25.10;;;14.50;;
6089;SDS011;3073;42.660;23.316;2023-08-24T00:40:30;23.93;;;13.10;;
6089;SDS011;3073;42.660;23.316;2023-08-24T00:42:59;18.47;;;12.43;;
6089;SDS011;3073;42.660;23.316;2023-08-24T00:45:26;22.80;;;13.40;;
6089;SDS011;3073;42.660;23.316;2023-08-24T00:47:52;18.20;;;14.40;;
6089;SDS011;3073;42.660;23.316;2023-08-24T00:50:19;15.33;;;12.43;;
6089;SDS011;3073;42.660;23.316;2023-08-24T00:52:46;23.13;;;13.37;;
6089;SDS011;3073;42.660;23.316;2023-08-24T00:55:15;19.67;;;14.13;;
6089;SDS011;3073;42.660;23.316;2023-08-24T00:57:42;19.57;;;13.80;;
6089;SDS011;3073;42.660;23.316;2023-08-24T01:00:11;20.93;;;13.20;;
6089;SDS011;3073;42.660;23.316;2023-08-24T01:02:39;22.00;;;13.30;;
6089;SDS011;3073;42.660;23.316;2023-08-24T01:05:07;18.90;;;14.97;;
6089;SDS011;3073;42.660;23.316;2023-08-24T01:07:34;21.37;;;13.20;;
6089;SDS011;3073;42.660;23.316;2023-08-24T01:10:04;15.27;;;12.90;;
6089;SDS011;3073;42.660;23.316;2023-08-24T01:12:36;24.17;;;14.40;;
6089;SDS011;3073;42.660;23.316;2023-08-24T01:15:14;19.97;;;14.73;;
6089;SDS011;3073;42.660;23.316;2023-08-24T01:17:46;20.50;;;14.40;;
6089;SDS011;3073;42.660;23.316;2023-08-24T01:20:16;19.10;;;13.43;;
6089;SDS011;3073;42.660;23.316;2023-08-24T01:22:46;25.73;;;15.50;;
6089;SDS011;3073;42.660;23.316;2023-08-24T01:25:21;21.80;;;14.00;;
6089;SDS011;3073;42.660;23.316;2023-08-24T01:28:00;21.23;;;15.10;;
6089;SDS011;3073;42.660;23.316;2023-08-24T01:30:30;20.50;;;16.17;;
6089;SDS011;3073;42.660;23.316;2023-08-24T01:32:57;21.60;;;14.40;;
6089;SDS011;3073;42.660;23.316;2023-08-24T01:35:24;19.67;;;14.80;;
6089;SDS011;3073;42.660;23.316;2023-08-24T01:37:50;21.10;;;15.07;;
6089;SDS011;3073;42.660;23.316;2023-08-24T01:40:17;19.77;;;13.90;;
6089;SDS011;3073;42.660;23.316;2023-08-24T01:42:51;17.67;;;15.00;;
6089;SDS011;3073;42.660;23.316;2023-08-24T01:45:23;19.10;;;13.73;;
6089;SDS011;3073;42.660;23.316;2023-08-24T01:47:53;19.37;;;14.27;;
6089;SDS011;3073;42.660;23.316;2023-08-24T01:50:21;19.43;;;14.60;;
6089;SDS011;3073;42.660;23.316;2023-08-24T01:52:49;18.10;;;14.00;;
6089;SDS011;3073;42.660;23.316;2023-08-24T01:55:17;19.97;;;15.77;;
6089;SDS011;3073;42.660;23.316;2023-08-24T01:57:45;20.07;;;14.23;;
6089;SDS011;3073;42.660;23.316;2023-08-24T02:00:11;24.03;;;15.20;;
6089;SDS011;3073;42.660;23.316;2023-08-24T02:02:41;20.23;;;15.70;;
6089;SDS011;3073;42.660;23.316;2023-08-24T02:05:08;20.90;;;15.60;;
6089;SDS011;3073;42.660;23.316;2023-08-24T02:07:35;20.80;;;14.83;;
6089;SDS011;3073;42.660;23.316;2023-08-24T02:10:02;28.03;;;15.87;;
6089;SDS011;3073;42.660;23.316;2023-08-24T02:12:29;21.33;;;14.60;;
6089;SDS011;3073;42.660;23.316;2023-08-24T02:14:56;18.80;;;14.13;;
6089;SDS011;3073;42.660;23.316;2023-08-24T02:17:23;19.70;;;14.50;;
6089;SDS011;3073;42.660;23.316;2023-08-24T02:19:51;21.37;;;15.60;;
6089;SDS011;3073;42.660;23.316;2023-08-24T02:22:18;20.00;;;14.00;;
6089;SDS011;3073;42.660;23.316;2023-08-24T02:24:44;21.97;;;15.77;;
6089;SDS011;3073;42.660;23.316;2023-08-24T02:27:11;22.53;;;15.97;;
6089;SDS011;3073;42.660;23.316;2023-08-24T02:29:39;21.47;;;15.87;;
6089;SDS011;3073;42.660;23.316;2023-08-24T02:32:05;21.30;;;16.17;;
6089;SDS011;3073;42.660;23.316;2023-08-24T02:34:32;29.83;;;16.20;;
6089;SDS011;3073;42.660;23.316;2023-08-24T02:37:00;27.63;;;17.27;;
6089;SDS011;3073;42.660;23.316;2023-08-24T02:39:27;18.53;;;15.73;;
6089;SDS011;3073;42.660;23.316;2023-08-24T02:41:54;25.30;;;15.77;;
6089;SDS011;3073;42.660;23.316;2023-08-24T02:44:20;24.67;;;17.67;;
6089;SDS011;3073;42.660;23.316;2023-08-24T02:46:48;27.30;;;16.87;;
6089;SDS011;3073;42.660;23.316;2023-08-24T02:49:14;25.77;;;18.00;;
6089;SDS011;3073;42.660;23.316;2023-08-24T02:51:41;23.63;;;17.50;;
6089;SDS011;3073;42.660;23.316;2023-08-24T02:54:10;19.70;;;15.40;;
6089;SDS011;3073;42.660;23.316;2023-08-24T02:56:36;21.30;;;16.30;;
6089;SDS011;3073;42.660;23.316;2023-08-24T02:59:03;24.30;;;17.00;;
6089;SDS011;3073;42.660;23.316;2023-08-24T03:01:30;22.73;;;15.90;;
6089;SDS011;3073;42.660;23.316;2023-08-24T03:03:57;19.50;;;14.67;;
6089;SDS011;3073;42.660;23.316;2023-08-24T03:06:23;20.30;;;16.40;;
6089;SDS011;3073;42.660;23.316;2023-08-24T03:08:50;22.53;;;16.70;;
6089;SDS011;3073;42.660;23.316;2023-08-24T03:11:18;25.43;;;15.53;;
6089;SDS011;3073;42.660;23.316;2023-08-24T03:13:45;22.07;;;16.33;;
6089;SDS011;3073;42.660;23.316;2023-08-24T03:16:12;22.47;;;15.57;;
6089;SDS011;3073;42.660;23.316;2023-08-24T03:18:39;27.73;;;16.40;;
6089;SDS011;3073;42.660;23.316;2023-08-24T03:21:05;21.70;;;16.70;;
6089;SDS011;3073;42.660;23.316;2023-08-24T03:23:32;20.73;;;16.73;;
6089;SDS011;3073;42.660;23.316;2023-08-24T03:25:59;21.30;;;16.70;;
6089;SDS011;3073;42.660;23.316;2023-08-24T03:28:27;25.10;;;18.10;;
6089;SDS011;3073;42.660;23.316;2023-08-24T03:30:54;27.37;;;16.70;;
6089;SDS011;3073;42.660;23.316;2023-08-24T03:33:21;25.87;;;17.60;;
6089;SDS011;3073;42.660;23.316;2023-08-24T03:35:48;22.83;;;17.80;;
6089;SDS011;3073;42.660;23.316;2023-08-24T03:38:15;22.57;;;17.40;;
6089;SDS011;3073;42.660;23.316;2023-08-24T03:40:42;28.23;;;18.00;;
6089;SDS011;3073;42.660;23.316;2023-08-24T03:43:09;25.83;;;17.70;;
6089;SDS011;3073;42.660;23.316;2023-08-24T03:45:37;22.53;;;18.90;;
6089;SDS011;3073;42.660;23.316;2023-08-24T03:48:04;25.40;;;18.00;;
6089;SDS011;3073;42.660;23.316;2023-08-24T03:50:31;25.50;;;18.90;;
6089;SDS011;3073;42.660;23.316;2023-08-24T03:52:57;24.13;;;16.37;;
6089;SDS011;3073;42.660;23.316;2023-08-24T03:55:24;27.73;;;17.80;;
6089;SDS011;3073;42.660;23.316;2023-08-24T03:57:51;26.07;;;16.97;;
6089;SDS011;3073;42.660;23.316;2023-08-24T04:00:19;24.53;;;17.97;;
6089;SDS011;3073;42.660;23.316;2023-08-24T04:02:47;30.93;;;18.80;;
6089;SDS011;3073;42.660;23.316;2023-08-24T04:05:14;31.53;;;20.63;;
6089;SDS011;3073;42.660;23.316;2023-08-24T04:07:41;37.07;;;22.43;;
6089;SDS011;3073;42.660;23.316;2023-08-24T04:10:08;36.43;;;23.97;;
6089;SDS011;3073;42.660;23.316;2023-08-24T04:12:35;35.40;;;21.70;;
6089;SDS011;3073;42.660;23.316;2023-08-24T04:15:02;33.40;;;21.30;;
6089;SDS011;3073;42.660;23.316;2023-08-24T04:17:30;39.43;;;23.53;;
6089;SDS011;3073;42.660;23.316;2023-08-24T04:19:58;33.57;;;21.30;;
6089;SDS011;3073;42.660;23.316;2023-08-24T04:22:25;34.80;;;21.80;;
6089;SDS011;3073;42.660;23.316;2023-08-24T04:24:52;26.93;;;20.30;;
6089;SDS011;3073;42.660;23.316;2023-08-24T04:27:18;35.63;;;22.33;;
6089;SDS011;3073;42.660;23.316;2023-08-24T04:29:47;34.60;;;23.47;;
6089;SDS011;3073;42.660;23.316;2023-08-24T04:32:13;39.27;;;22.43;;
6089;SDS011;3073;42.660;23.316;2023-08-24T04:34:40;31.93;;;21.00;;
6089;SDS011;3073;42.660;23.316;2023-08-24T04:37:09;30.33;;;21.13;;
6089;SDS011;3073;42.660;23.316;2023-08-24T04:39:35;31.70;;;20.10;;
6089;SDS011;3073;42.660;23.316;2023-08-24T04:42:02;35.27;;;22.63;;
6089;SDS011;3073;42.660;23.316;2023-08-24T04:44:29;44.40;;;26.70;;
6089;SDS011;3073;42.660;23.316;2023-08-24T04:46:56;30.83;;;23.30;;
6089;SDS011;3073;42.660;23.316;2023-08-24T04:49:23;32.53;;;22.97;;
6089;SDS011;3073;42.660;23.316;2023-08-24T04:51:49;29.80;;;23.00;;
6089;SDS011;3073;42.660;23.316;2023-08-24T04:54:17;37.43;;;22.70;;
6089;SDS011;3073;42.660;23.316;2023-08-24T04:56:44;36.80;;;22.20;;
6089;SDS011;3073;42.660;23.316;2023-08-24T04:59:11;37.33;;;23.50;;
6089;SDS011;3073;42.660;23.316;2023-08-24T05:01:38;35.80;;;24.63;;
6089;SDS011;3073;42.660;23.316;2023-08-24T05:04:05;36.67;;;25.20;;
6089;SDS011;3073;42.660;23.316;2023-08-24T05:06:31;43.60;;;24.00;;
6089;SDS011;3073;42.660;23.316;2023-08-24T05:08:58;52.03;;;27.87;;
6089;SDS011;3073;42.660;23.316;2023-08-24T05:11:27;35.63;;;24.23;;
6089;SDS011;3073;42.660;23.316;2023-08-24T05:13:55;47.37;;;26.37;;
6089;SDS011;3073;42.660;23.316;2023-08-24T05:16:22;46.07;;;25.13;;
6089;SDS011;3073;42.660;23.316;2023-08-24T05:18:49;42.00;;;23.40;;
6089;SDS011;3073;42.660;23.316;2023-08-24T05:21:16;39.93;;;24.70;;
6089;SDS011;3073;42.660;23.316;2023-08-24T05:23:43;49.93;;;23.70;;
6089;SDS011;3073;42.660;23.316;2023-08-24T05:26:10;34.37;;;20.00;;
6089;SDS011;3073;42.660;23.316;2023-08-24T05:28:38;30.13;;;20.70;;
6089;SDS011;3073;42.660;23.316;2023-08-24T05:31:05;31.40;;;19.10;;
6089;SDS011;3073;42.660;23.316;2023-08-24T05:33:31;29.13;;;20.33;;
6089;SDS011;3073;42.660;23.316;2023-08-24T05:35:58;26.70;;;19.73;;
6089;SDS011;3073;42.660;23.316;2023-08-24T05:38:25;27.70;;;21.33;;
6089;SDS011;3073;42.660;23.316;2023-08-24T05:40:52;33.47;;;20.37;;
6089;SDS011;3073;42.660;23.316;2023-08-24T05:43:19;33.53;;;23.80;;
6089;SDS011;3073;42.660;23.316;2023-08-24T05:45:47;33.30;;;22.63;;
6089;SDS011;3073;42.660;23.316;2023-08-24T05:48:14;51.10;;;22.93;;
6089;SDS011;3073;42.660;23.316;2023-08-24T05:50:44;39.40;;;21.50;;
6089;SDS011;3073;42.660;23.316;2023-08-24T05:53:13;37.20;;;23.00;;
6089;SDS011;3073;42.660;23.316;2023-08-24T05:55:40;29.87;;;22.10;;
6089;SDS011;3073;42.660;23.316;2023-08-24T05:58:07;33.83;;;22.70;;
6089;SDS011;3073;42.660;23.316;2023-08-24T06:00:34;35.33;;;23.00;;
6089;SDS011;3073;42.660;23.316;2023-08-24T06:03:02;35.87;;;22.87;;
6089;SDS011;3073;42.660;23.316;2023-08-24T06:05:30;35.83;;;23.50;;
6089;SDS011;3073;42.660;23.316;2023-08-24T06:07:57;33.80;;;20.57;;
6089;SDS011;3073;42.660;23.316;2023-08-24T06:10:24;37.53;;;24.57;;
6089;SDS011;3073;42.660;23.316;2023-08-24T06:12:51;35.23;;;23.17;;
6089;SDS011;3073;42.660;23.316;2023-08-24T06:15:18;34.00;;;22.17;;
6089;SDS011;3073;42.660;23.316;2023-08-24T06:17:48;31.27;;;21.80;;
6089;SDS011;3073;42.660;23.316;2023-08-24T06:20:17;40.53;;;22.93;;
6089;SDS011;3073;42.660;23.316;2023-08-24T06:22:44;39.37;;;22.60;;
6089;SDS011;3073;42.660;23.316;2023-08-24T06:25:11;36.60;;;23.50;;
6089;SDS011;3073;42.660;23.316;2023-08-24T06:27:38;32.83;;;21.73;;
6089;SDS011;3073;42.660;23.316;2023-08-24T06:30:05;30.75;;;21.10;;
6089;SDS011;3073;42.660;23.316;2023-08-24T06:32:33;29.73;;;19.10;;
6089;SDS011;3073;42.660;23.316;2023-08-24T06:35:00;24.63;;;19.65;;
6089;SDS011;3073;42.660;23.316;2023-08-24T06:37:28;38.28;;;20.00;;
6089;SDS011;3073;42.660;23.316;2023-08-24T06:39:55;31.27;;;20.27;;
6089;SDS011;3073;42.660;23.316;2023-08-24T06:42:21;32.35;;;19.77;;
6089;SDS011;3073;42.660;23.316;2023-08-24T06:44:48;31.88;;;19.52;;
6089;SDS011;3073;42.660;23.316;2023-08-24T06:47:16;33.38;;;19.95;;
6089;SDS011;3073;42.660;23.316;2023-08-24T06:49:42;34.28;;;19.75;;
6089;SDS011;3073;42.660;23.316;2023-08-24T06:52:09;24.67;;;18.80;;
6089;SDS011;3073;42.660;23.316;2023-08-24T06:54:37;30.20;;;19.40;;
6089;SDS011;3073;42.660;23.316;2023-08-24T06:57:04;26.17;;;18.10;;
6089;SDS011;3073;42.660;23.316;2023-08-24T06:59:31;24.27;;;17.02;;
6089;SDS011;3073;42.660;23.316;2023-08-24T07:01:58;24.73;;;16.50;;
6089;SDS011;3073;42.660;23.316;2023-08-24T07:04:25;39.35;;;18.63;;
6089;SDS011;3073;42.660;23.316;2023-08-24T07:06:53;23.65;;;17.50;;
6089;SDS011;3073;42.660;23.316;2023-08-24T07:09:19;27.90;;;15.73;;
6089;SDS011;3073;42.660;23.316;2023-08-24T07:11:48;21.40;;;15.30;;
6089;SDS011;3073;42.660;23.316;2023-08-24T07:14:15;19.52;;;15.70;;
6089;SDS011;3073;42.660;23.316;2023-08-24T07:16:42;17.92;;;14.63;;
6089;SDS011;3073;42.660;23.316;2023-08-24T07:19:09;21.10;;;13.93;;
6089;SDS011;3073;42.660;23.316;2023-08-24T07:21:36;24.77;;;15.32;;
6089;SDS011;3073;42.660;23.316;2023-08-24T07:24:03;19.75;;;16.15;;
6089;SDS011;3073;42.660;23.316;2023-08-24T07:26:30;24.75;;;15.20;;
6089;SDS011;3073;42.660;23.316;2023-08-24T07:28:58;30.35;;;15.77;;
6089;SDS011;3073;42.660;23.316;2023-08-24T07:31:25;21.35;;;15.68;;
6089;SDS011;3073;42.660;23.316;2023-08-24T07:33:52;23.42;;;15.98;;
6089;SDS011;3073;42.660;23.316;2023-08-24T07:36:19;21.33;;;15.40;;
6089;SDS011;3073;42.660;23.316;2023-08-24T07:38:46;17.17;;;14.80;;
6089;SDS011;3073;42.660;23.316;2023-08-24T07:41:13;22.45;;;15.43;;
6089;SDS011;3073;42.660;23.316;2023-08-24T07:43:40;22.17;;;14.73;;
6089;SDS011;3073;42.660;23.316;2023-08-24T07:46:08;16.90;;;14.25;;
6089;SDS011;3073;42.660;23.316;2023-08-24T07:48:35;22.38;;;15.32;;
6089;SDS011;3073;42.660;23.316;2023-08-24T07:51:02;18.73;;;14.27;;
6089;SDS011;3073;42.660;23.316;2023-08-24T07:53:29;17.17;;;14.50;;
6089;SDS011;3073;42.660;23.316;2023-08-24T07:55:57;15.88;;;13.20;;
6089;SDS011;3073;42.660;23.316;2023-08-24T07:58:25;21.50;;;13.82;;
6089;SDS011;3073;42.660;23.316;2023-08-24T08:00:52;18.00;;;13.57;;
6089;SDS011;3073;42.660;23.316;2023-08-24T08:03:20;22.10;;;12.63;;
6089;SDS011;3073;42.660;23.316;2023-08-24T08:05:47;18.98;;;13.55;;
6089;SDS011;3073;42.660;23.316;2023-08-24T08:08:14;19.42;;;13.75;;
6089;SDS011;3073;42.660;23.316;2023-08-24T08:10:41;17.15;;;13.25;;
6089;SDS011;3073;42.660;23.316;2023-08-24T08:13:08;15.43;;;12.68;;
6089;SDS011;3073;42.660;23.316;2023-08-24T08:15:36;19.48;;;12.55;;
6089;SDS011;3073;42.660;23.316;2023-08-24T08:18:04;18.65;;;13.75;;
6089;SDS011;3073;42.660;23.316;2023-08-24T08:20:32;16.42;;;12.27;;
6089;SDS011;3073;42.660;23.316;2023-08-24T08:22:59;17.33;;;11.45;;
6089;SDS011;3073;42.660;23.316;2023-08-24T08:25:26;16.95;;;11.93;;
6089;SDS011;3073;42.660;23.316;2023-08-24T08:27:53;18.48;;;13.40;;
6089;SDS011;3073;42.660;23.316;2023-08-24T08:30:20;17.85;;;11.57;;
6089;SDS011;3073;42.660;23.316;2023-08-24T08:32:46;13.85;;;12.43;;
6089;SDS011;3073;42.660;23.316;2023-08-24T08:35:13;17.48;;;11.95;;
6089;SDS011;3073;42.660;23.316;2023-08-24T08:37:42;16.23;;;11.95;;
6089;SDS011;3073;42.660;23.316;2023-08-24T08:40:10;19.98;;;12.45;;
6089;SDS011;3073;42.660;23.316;2023-08-24T08:42:45;23.33;;;12.80;;
6089;SDS011;3073;42.660;23.316;2023-08-24T08:45:12;17.10;;;11.95;;
6089;SDS011;3073;42.660;23.316;2023-08-24T08:47:39;15.15;;;12.30;;
6089;SDS011;3073;42.660;23.316;2023-08-24T08:50:07;12.82;;;10.93;;
6089;SDS011;3073;42.660;23.316;2023-08-24T08:52:35;19.92;;;12.38;;
6089;SDS011;3073;42.660;23.316;2023-08-24T08:55:04;15.20;;;12.50;;
6089;SDS011;3073;42.660;23.316;2023-08-24T08:57:34;14.63;;;11.95;;
6089;SDS011;3073;42.660;23.316;2023-08-24T09:00:01;16.10;;;11.98;;
6089;SDS011;3073;42.660;23.316;2023-08-24T09:02:29;16.02;;;11.85;;
6089;SDS011;3073;42.660;23.316;2023-08-24T09:04:58;14.10;;;10.95;;
6089;SDS011;3073;42.660;23.316;2023-08-24T09:07:25;12.45;;;11.10;;
6089;SDS011;3073;42.660;23.316;2023-08-24T09:09:52;20.30;;;12.38;;
6089;SDS011;3073;42.660;23.316;2023-08-24T09:12:20;16.38;;;10.73;;
6089;SDS011;3073;42.660;23.316;2023-08-24T09:14:47;21.05;;;12.90;;
6089;SDS011;3073;42.660;23.316;2023-08-24T09:17:20;16.17;;;11.88;;
6089;SDS011;3073;42.660;23.316;2023-08-24T09:19:49;22.58;;;12.55;;
6089;SDS011;3073;42.660;23.316;2023-08-24T09:22:16;17.05;;;11.63;;
6089;SDS011;3073;42.660;23.316;2023-08-24T09:24:43;13.48;;;11.95;;
6089;SDS011;3073;42.660;23.316;2023-08-24T09:27:14;15.70;;;12.80;;
6089;SDS011;3073;42.660;23.316;2023-08-24T09:29:46;18.10;;;12.80;;
6089;SDS011;3073;42.660;23.316;2023-08-24T09:32:14;13.80;;;11.90;;
6089;SDS011;3073;42.660;23.316;2023-08-24T09:34:41;13.75;;;12.38;;
6089;SDS011;3073;42.660;23.316;2023-08-24T09:37:12;20.77;;;12.15;;
6089;SDS011;3073;42.660;23.316;2023-08-24T09:39:42;12.75;;;11.48;;
6089;SDS011;3073;42.660;23.316;2023-08-24T09:42:10;19.23;;;12.05;;
6089;SDS011;3073;42.660;23.316;2023-08-24T09:44:37;13.50;;;11.73;;
6089;SDS011;3073;42.660;23.316;2023-08-24T09:47:10;15.75;;;11.70;;
6089;SDS011;3073;42.660;23.316;2023-08-24T09:49:37;12.82;;;11.48;;
6089;SDS011;3073;42.660;23.316;2023-08-24T09:52:06;13.18;;;11.13;;
6089;SDS011;3073;42.660;23.316;2023-08-24T09:54:35;14.43;;;11.23;;
6089;SDS011;3073;42.660;23.316;2023-08-24T09:57:04;12.43;;;11.10;;
6089;SDS011;3073;42.660;23.316;2023-08-24T09:59:33;15.20;;;11.68;;
6089;SDS011;3073;42.660;23.316;2023-08-24T10:02:03;15.27;;;12.52;;
6089;SDS011;3073;42.660;23.316;2023-08-24T10:04:38;12.88;;;11.68;;
6089;SDS011;3073;42.660;23.316;2023-08-24T10:07:08;14.18;;;12.30;;
6089;SDS011;3073;42.660;23.316;2023-08-24T10:09:43;13.82;;;12.52;;
6089;SDS011;3073;42.660;23.316;2023-08-24T10:12:13;16.33;;;11.88;;
6089;SDS011;3073;42.660;23.316;2023-08-24T10:14:41;15.63;;;11.55;;
6089;SDS011;3073;42.660;23.316;2023-08-24T10:17:13;15.82;;;11.60;;
6089;SDS011;3073;42.660;23.316;2023-08-24T10:19:42;10.00;;;9.00;;
6089;SDS011;3073;42.660;23.316;2023-08-24T10:22:09;13.00;;;10.25;;
6089;SDS011;3073;42.660;23.316;2023-08-24T10:24:38;10.35;;;8.82;;
6089;SDS011;3073;42.660;23.316;2023-08-24T10:27:05;18.63;;;9.80;;
6089;SDS011;3073;42.660;23.316;2023-08-24T10:29:35;12.40;;;9.27;;
6089;SDS011;3073;42.660;23.316;2023-08-24T10:32:02;16.45;;;9.65;;
6089;SDS011;3073;42.660;23.316;2023-08-24T10:34:30;12.60;;;11.40;;
6089;SDS011;3073;42.660;23.316;2023-08-24T10:36:59;12.55;;;11.25;;
6089;SDS011;3073;42.660;23.316;2023-08-24T10:39:34;11.25;;;10.13;;
6089;SDS011;3073;42.660;23.316;2023-08-24T10:42:03;15.07;;;10.77;;
6089;SDS011;3073;42.660;23.316;2023-08-24T10:44:35;13.88;;;10.68;;
6089;SDS011;3073;42.660;23.316;2023-08-24T10:47:06;14.00;;;10.52;;
6089;SDS011;3073;42.660;23.316;2023-08-24T10:49:34;12.52;;;11.10;;
6089;SDS011;3073;42.660;23.316;2023-08-24T10:52:22;12.98;;;11.45;;
6089;SDS011;3073;42.660;23.316;2023-08-24T10:54:51;15.40;;;10.80;;
6089;SDS011;3073;42.660;23.316;2023-08-24T10:57:20;11.48;;;10.48;;
6089;SDS011;3073;42.660;23.316;2023-08-24T10:59:58;14.15;;;10.95;;
6089;SDS011;3073;42.660;23.316;2023-08-24T11:02:26;15.77;;;11.35;;
6089;SDS011;3073;42.660;23.316;2023-08-24T11:05:03;16.90;;;11.57;;
6089;SDS011;3073;42.660;23.316;2023-08-24T11:07:32;13.68;;;11.77;;
6089;SDS011;3073;42.660;23.316;2023-08-24T11:09:59;30.05;;;12.63;;
6089;SDS011;3073;42.660;23.316;2023-08-24T11:15:30;24.10;;;12.50;;
6089;SDS011;3073;42.660;23.316;2023-08-24T11:18:10;17.88;;;12.27;;
6089;SDS011;3073;42.660;23.316;2023-08-24T11:20:44;17.98;;;11.75;;
6089;SDS011;3073;42.660;23.316;2023-08-24T11:23:14;15.82;;;12.68;;
6089;SDS011;3073;42.660;23.316;2023-08-24T11:25:42;15.48;;;11.45;;
6089;SDS011;3073;42.660;23.316;2023-08-24T11:28:09;17.83;;;12.88;;
6089;SDS011;3073;42.660;23.316;2023-08-24T11:30:36;20.48;;;14.82;;
6089;SDS011;3073;42.660;23.316;2023-08-24T11:33:03;22.48;;;13.40;;
6089;SDS011;3073;42.660;23.316;2023-08-24T11:35:34;18.73;;;13.45;;
6089;SDS011;3073;42.660;23.316;2023-08-24T11:38:02;19.67;;;13.38;;
6089;SDS011;3073;42.660;23.316;2023-08-24T11:40:31;16.38;;;13.30;;
6089;SDS011;3073;42.660;23.316;2023-08-24T11:42:58;15.23;;;13.38;;
6089;SDS011;3073;42.660;23.316;2023-08-24T11:45:29;17.15;;;12.10;;
6089;SDS011;3073;42.660;23.316;2023-08-24T11:47:58;15.50;;;11.98;;
6089;SDS011;3073;42.660;23.316;2023-08-24T11:50:26;13.68;;;12.25;;
6089;SDS011;3073;42.660;23.316;2023-08-24T11:52:53;15.73;;;11.95;;
6089;SDS011;3073;42.660;23.316;2023-08-24T11:55:20;15.02;;;11.07;;
6089;SDS011;3073;42.660;23.316;2023-08-24T11:57:49;18.98;;;11.60;;
6089;SDS011;3073;42.660;23.316;2023-08-24T12:00:16;17.83;;;11.93;;
6089;SDS011;3073;42.660;23.316;2023-08-24T12:02:44;16.38;;;12.48;;
6089;SDS011;3073;42.660;23.316;2023-08-24T12:05:22;14.35;;;10.75;;
6089;SDS011;3073;42.660;23.316;2023-08-24T12:07:50;15.73;;;12.55;;
6089;SDS011;3073;42.660;23.316;2023-08-24T12:10:18;12.88;;;10.70;;
6089;SDS011;3073;42.660;23.316;2023-08-24T12:12:45;15.07;;;11.70;;
6089;SDS011;3073;42.660;23.316;2023-08-24T12:15:17;15.70;;;11.02;;
6089;SDS011;3073;42.660;23.316;2023-08-24T12:17:45;14.75;;;10.20;;
6089;SDS011;3073;42.660;23.316;2023-08-24T12:20:17;13.02;;;11.70;;
6089;SDS011;3073;42.660;23.316;2023-08-24T12:22:53;12.10;;;10.77;;
6089;SDS011;3073;42.660;23.316;2023-08-24T12:25:23;14.13;;;11.57;;
6089;SDS011;3073;42.660;23.316;2023-08-24T12:27:51;14.18;;;11.15;;
6089;SDS011;3073;42.660;23.316;2023-08-24T12:30:20;12.45;;;10.43;;
6089;SDS011;3073;42.660;23.316;2023-08-24T12:32:47;19.08;;;10.75;;
6089;SDS011;3073;42.660;23.316;2023-08-24T12:35:16;13.40;;;10.25;;
6089;SDS011;3073;42.660;23.316;2023-08-24T12:37:43;16.85;;;12.07;;
6089;SDS011;3073;42.660;23.316;2023-08-24T12:40:10;14.57;;;11.02;;
6089;SDS011;3073;42.660;23.316;2023-08-24T12:42:38;13.73;;;11.18;;
6089;SDS011;3073;42.660;23.316;2023-08-24T12:45:05;13.05;;;10.70;;
6089;SDS011;3073;42.660;23.316;2023-08-24T12:47:34;14.05;;;10.75;;
6089;SDS011;3073;42.660;23.316;2023-08-24T12:50:04;18.30;;;11.38;;
6089;SDS011;3073;42.660;23.316;2023-08-24T12:52:34;15.93;;;11.70;;
6089;SDS011;3073;42.660;23.316;2023-08-24T12:55:00;18.58;;;10.93;;
6089;SDS011;3073;42.660;23.316;2023-08-24T12:57:29;22.65;;;11.45;;
6089;SDS011;3073;42.660;23.316;2023-08-24T12:59:56;16.05;;;11.18;;
6089;SDS011;3073;42.660;23.316;2023-08-24T13:02:23;14.15;;;10.63;;
6089;SDS011;3073;42.660;23.316;2023-08-24T13:04:51;15.48;;;10.07;;
6089;SDS011;3073;42.660;23.316;2023-08-24T13:07:18;13.95;;;10.35;;
6089;SDS011;3073;42.660;23.316;2023-08-24T13:09:45;13.60;;;10.82;;
6089;SDS011;3073;42.660;23.316;2023-08-24T13:12:12;20.35;;;11.50;;
6089;SDS011;3073;42.660;23.316;2023-08-24T13:14:39;19.38;;;12.13;;
6089;SDS011;3073;42.660;23.316;2023-08-24T13:17:06;15.15;;;12.05;;
6089;SDS011;3073;42.660;23.316;2023-08-24T13:19:33;18.77;;;11.65;;
6089;SDS011;3073;42.660;23.316;2023-08-24T13:22:01;18.50;;;11.32;;
6089;SDS011;3073;42.660;23.316;2023-08-24T13:24:28;22.25;;;12.43;;
6089;SDS011;3073;42.660;23.316;2023-08-24T13:26:55;15.55;;;11.10;;
6089;SDS011;3073;42.660;23.316;2023-08-24T13:29:22;17.33;;;11.73;;
6089;SDS011;3073;42.660;23.316;2023-08-24T13:31:49;22.50;;;12.75;;
6089;SDS011;3073;42.660;23.316;2023-08-24T13:34:15;23.90;;;12.18;;
6089;SDS011;3073;42.660;23.316;2023-08-24T13:36:42;23.00;;;12.82;;
6089;SDS011;3073;42.660;23.316;2023-08-24T13:39:10;33.85;;;14.05;;
6089;SDS011;3073;42.660;23.316;2023-08-24T13:41:37;18.70;;;12.60;;
6089;SDS011;3073;42.660;23.316;2023-08-24T13:44:04;16.25;;;11.85;;
6089;SDS011;3073;42.660;23.316;2023-08-24T13:46:31;14.23;;;12.00;;
6089;SDS011;3073;42.660;23.316;2023-08-24T13:48:58;21.92;;;12.25;;
6089;SDS011;3073;42.660;23.316;2023-08-24T13:51:24;20.30;;;12.50;;
6089;SDS011;3073;42.660;23.316;2023-08-24T13:53:51;18.00;;;11.95;;
6089;SDS011;3073;42.660;23.316;2023-08-24T13:56:20;15.57;;;11.15;;
6089;SDS011;3073;42.660;23.316;2023-08-24T13:58:47;13.70;;;12.13;;
6089;SDS011;3073;42.660;23.316;2023-08-24T14:01:14;20.13;;;13.10;;
6089;SDS011;3073;42.660;23.316;2023-08-24T14:03:41;19.42;;;11.88;;
6089;SDS011;3073;42.660;23.316;2023-08-24T14:06:09;23.25;;;12.23;;
6089;SDS011;3073;42.660;23.316;2023-08-24T14:08:36;16.58;;;11.38;;
6089;SDS011;3073;42.660;23.316;2023-08-24T14:11:03;21.85;;;12.35;;
6089;SDS011;3073;42.660;23.316;2023-08-24T14:13:31;19.40;;;12.88;;
6089;SDS011;3073;42.660;23.316;2023-08-24T14:15:58;20.67;;;12.95;;
6089;SDS011;3073;42.660;23.316;2023-08-24T14:18:25;15.32;;;13.25;;
6089;SDS011;3073;42.660;23.316;2023-08-24T14:20:53;16.98;;;12.77;;
6089;SDS011;3073;42.660;23.316;2023-08-24T14:23:19;16.05;;;13.48;;
6089;SDS011;3073;42.660;23.316;2023-08-24T14:25:46;21.20;;;13.93;;
6089;SDS011;3073;42.660;23.316;2023-08-24T14:28:14;15.85;;;12.27;;
6089;SDS011;3073;42.660;23.316;2023-08-24T14:30:50;15.23;;;13.43;;
6089;SDS011;3073;42.660;23.316;2023-08-24T14:33:17;22.08;;;13.35;;
6089;SDS011;3073;42.660;23.316;2023-08-24T14:35:51;17.40;;;13.57;;
6089;SDS011;3073;42.660;23.316;2023-08-24T14:38:18;16.15;;;12.50;;
6089;SDS011;3073;42.660;23.316;2023-08-24T14:40:45;17.48;;;13.73;;
6089;SDS011;3073;42.660;23.316;2023-08-24T14:43:12;23.98;;;15.20;;